sensor_id;sensor_type;location;lat;lon;timestamp;P1;durP1;ratioP1;P2;durP2;ratioP2
13404;SDS011;6773;51.192;7.024;2023-01-19T00:01:20;8.80;;;7.40;;
13404;SDS011;6773;51.192;7.024;2023-01-19T00:03:47;9.90;;;7.23;;
13404;SDS011;6773;51.192;7.024;2023-01-19T00:06:12;9.37;;;6.47;;
13404;SDS011;6773;51.192;7.024;2023-01-19T00:08:38;9.17;;;7.73;;
13404;SDS011;6773;51.192;7.024;2023-01-19T00:11:04;11.07;;;7.60;;
13404;SDS011;6773;51.192;7.024;2023-01-19T00:13:30;11.30;;;7.97;;
13404;SDS011;6773;51.192;7.024;2023-01-19T00:15:56;13.27;;;7.13;;
13404;SDS011;6773;51.192;7.024;2023-01-19T00:18:22;10.20;;;7.40;;
13404;SDS011;6773;51.192;7.024;2023-01-19T00:20:48;11.13;;;8.00;;
13404;SDS011;6773;51.192;7.024;2023-01-19T00:23:14;8.80;;;6.80;;
13404;SDS011;6773;51.192;7.024;2023-01-19T00:25:40;11.87;;;6.97;;
13404;SDS011;6773;51.192;7.024;2023-01-19T00:28:09;9.57;;;8.57;;
13404;SDS011;6773;51.192;7.024;2023-01-19T00:30:36;10.23;;;7.83;;
13404;SDS011;6773;51.192;7.024;2023-01-19T00:33:02;10.10;;;6.87;;
13404;SDS011;6773;51.192;7.024;2023-01-19T00:35:28;9.97;;;7.67;;
13404;SDS011;6773;51.192;7.024;2023-01-19T00:37:54;7.60;;;5.60;;
13404;SDS011;6773;51.192;7.024;2023-01-19T00:40:21;10.87;;;7.33;;
13404;SDS011;6773;51.192;7.024;2023-01-19T00:42:46;10.30;;;7.70;;
13404;SDS011;6773;51.192;7.024;2023-01-19T00:47:42;9.33;;;7.00;;
13404;SDS011;6773;51.192;7.024;2023-01-19T00:50:09;9.07;;;7.90;;
13404;SDS011;6773;51.192;7.024;2023-01-19T00:52:39;8.23;;;6.33;;
13404;SDS011;6773;51.192;7.024;2023-01-19T00:55:06;12.47;;;9.20;;
13404;SDS011;6773;51.192;7.024;2023-01-19T00:57:33;11.17;;;7.97;;
13404;SDS011;6773;51.192;7.024;2023-01-19T00:59:59;11.83;;;7.80;;
13404;SDS011;6773;51.192;7.024;2023-01-19T01:02:25;13.17;;;7.60;;
13404;SDS011;6773;51.192;7.024;2023-01-19T01:04:51;10.90;;;8.03;;
13404;SDS011;6773;51.192;7.024;2023-01-19T01:07:19;8.33;;;6.57;;
13404;SDS011;6773;51.192;7.024;2023-01-19T01:09:45;8.87;;;7.90;;
13404;SDS011;6773;51.192;7.024;2023-01-19T01:12:11;10.70;;;7.57;;
13404;SDS011;6773;51.192;7.024;2023-01-19T01:14:37;12.67;;;7.67;;
13404;SDS011;6773;51.192;7.024;2023-01-19T01:17:02;12.10;;;6.80;;
13404;SDS011;6773;51.192;7.024;2023-01-19T01:19:28;11.23;;;8.30;;
13404;SDS011;6773;51.192;7.024;2023-01-19T01:21:54;11.13;;;7.93;;
13404;SDS011;6773;51.192;7.024;2023-01-19T01:24:20;9.17;;;7.70;;
13404;SDS011;6773;51.192;7.024;2023-01-19T01:26:45;9.37;;;7.37;;
13404;SDS011;6773;51.192;7.024;2023-01-19T01:29:11;10.53;;;7.63;;
13404;SDS011;6773;51.192;7.024;2023-01-19T01:31:37;10.73;;;7.70;;
13404;SDS011;6773;51.192;7.024;2023-01-19T01:34:02;8.73;;;7.20;;
13404;SDS011;6773;51.192;7.024;2023-01-19T01:36:28;11.37;;;7.80;;
13404;SDS011;6773;51.192;7.024;2023-01-19T01:38:57;13.13;;;7.83;;
13404;SDS011;6773;51.192;7.024;2023-01-19T01:41:23;8.80;;;7.10;;
13404;SDS011;6773;51.192;7.024;2023-01-19T01:43:50;9.90;;;7.23;;
13404;SDS011;6773;51.192;7.024;2023-01-19T01:46:20;11.37;;;7.67;;
13404;SDS011;6773;51.192;7.024;2023-01-19T01:49:09;8.77;;;6.33;;
13404;SDS011;6773;51.192;7.024;2023-01-19T01:51:52;8.30;;;6.57;;
13404;SDS011;6773;51.192;7.024;2023-01-19T01:54:20;7.90;;;6.93;;
13404;SDS011;6773;51.192;7.024;2023-01-19T01:56:50;9.13;;;7.93;;
13404;SDS011;6773;51.192;7.024;2023-01-19T01:59:28;9.67;;;7.90;;
13404;SDS011;6773;51.192;7.024;2023-01-19T02:02:03;7.77;;;6.63;;
13404;SDS011;6773;51.192;7.024;2023-01-19T02:05:12;5.87;;;5.30;;
13404;SDS011;6773;51.192;7.024;2023-01-19T02:08:02;10.40;;;7.00;;
13404;SDS011;6773;51.192;7.024;2023-01-19T02:10:47;10.83;;;6.80;;
13404;SDS011;6773;51.192;7.024;2023-01-19T02:13:32;11.87;;;8.57;;
13404;SDS011;6773;51.192;7.024;2023-01-19T02:16:00;10.93;;;7.67;;
13404;SDS011;6773;51.192;7.024;2023-01-19T02:18:30;8.77;;;6.97;;
13404;SDS011;6773;51.192;7.024;2023-01-19T02:26:11;8.50;;;7.10;;
13404;SDS011;6773;51.192;7.024;2023-01-19T02:28:40;9.60;;;6.87;;
13404;SDS011;6773;51.192;7.024;2023-01-19T02:31:08;10.20;;;6.80;;
13404;SDS011;6773;51.192;7.024;2023-01-19T02:33:35;8.37;;;6.77;;
13404;SDS011;6773;51.192;7.024;2023-01-19T02:36:01;7.13;;;6.20;;
13404;SDS011;6773;51.192;7.024;2023-01-19T02:38:28;9.83;;;8.13;;
13404;SDS011;6773;51.192;7.024;2023-01-19T02:40:56;9.53;;;6.73;;
13404;SDS011;6773;51.192;7.024;2023-01-19T02:43:24;7.33;;;5.67;;
13404;SDS011;6773;51.192;7.024;2023-01-19T02:45:52;8.37;;;6.13;;
13404;SDS011;6773;51.192;7.024;2023-01-19T02:48:18;6.87;;;5.60;;
13404;SDS011;6773;51.192;7.024;2023-01-19T02:50:45;7.67;;;6.87;;
13404;SDS011;6773;51.192;7.024;2023-01-19T02:53:28;7.40;;;6.57;;
13404;SDS011;6773;51.192;7.024;2023-01-19T02:58:39;7.93;;;6.07;;
13404;SDS011;6773;51.192;7.024;2023-01-19T03:01:10;7.87;;;5.63;;
13404;SDS011;6773;51.192;7.024;2023-01-19T03:06:41;10.03;;;7.47;;
13404;SDS011;6773;51.192;7.024;2023-01-19T03:09:13;6.60;;;5.43;;
13404;SDS011;6773;51.192;7.024;2023-01-19T03:12:08;10.90;;;5.87;;
13404;SDS011;6773;51.192;7.024;2023-01-19T03:14:49;9.80;;;7.23;;
13404;SDS011;6773;51.192;7.024;2023-01-19T03:17:19;8.07;;;6.43;;
13404;SDS011;6773;51.192;7.024;2023-01-19T03:19:47;12.10;;;7.00;;
13404;SDS011;6773;51.192;7.024;2023-01-19T03:22:18;10.20;;;6.93;;
13404;SDS011;6773;51.192;7.024;2023-01-19T03:24:48;7.40;;;6.30;;
13404;SDS011;6773;51.192;7.024;2023-01-19T03:27:19;8.23;;;6.57;;
13404;SDS011;6773;51.192;7.024;2023-01-19T03:29:51;7.60;;;5.80;;
13404;SDS011;6773;51.192;7.024;2023-01-19T03:32:20;10.33;;;7.17;;
13404;SDS011;6773;51.192;7.024;2023-01-19T03:34:53;8.90;;;7.27;;
13404;SDS011;6773;51.192;7.024;2023-01-19T03:37:20;8.83;;;5.77;;
13404;SDS011;6773;51.192;7.024;2023-01-19T03:39:48;9.30;;;6.00;;
13404;SDS011;6773;51.192;7.024;2023-01-19T03:42:14;7.67;;;6.20;;
13404;SDS011;6773;51.192;7.024;2023-01-19T03:44:42;5.90;;;5.10;;
13404;SDS011;6773;51.192;7.024;2023-01-19T03:47:10;8.00;;;6.47;;
13404;SDS011;6773;51.192;7.024;2023-01-19T03:49:38;8.83;;;6.90;;
13404;SDS011;6773;51.192;7.024;2023-01-19T03:52:07;7.60;;;6.23;;
13404;SDS011;6773;51.192;7.024;2023-01-19T03:54:32;7.60;;;5.43;;
13404;SDS011;6773;51.192;7.024;2023-01-19T03:56:58;8.93;;;7.37;;
13404;SDS011;6773;51.192;7.024;2023-01-19T03:59:24;6.03;;;5.43;;
13404;SDS011;6773;51.192;7.024;2023-01-19T04:01:49;11.77;;;6.83;;
13404;SDS011;6773;51.192;7.024;2023-01-19T04:04:15;7.73;;;6.73;;
13404;SDS011;6773;51.192;7.024;2023-01-19T04:06:41;12.53;;;7.77;;
13404;SDS011;6773;51.192;7.024;2023-01-19T04:09:07;11.33;;;5.93;;
13404;SDS011;6773;51.192;7.024;2023-01-19T04:11:33;8.73;;;6.53;;
13404;SDS011;6773;51.192;7.024;2023-01-19T04:13:59;7.67;;;6.17;;
13404;SDS011;6773;51.192;7.024;2023-01-19T04:16:25;7.77;;;6.67;;
13404;SDS011;6773;51.192;7.024;2023-01-19T04:18:51;8.57;;;6.10;;
13404;SDS011;6773;51.192;7.024;2023-01-19T04:21:16;7.87;;;7.07;;
13404;SDS011;6773;51.192;7.024;2023-01-19T04:23:44;8.20;;;6.63;;
13404;SDS011;6773;51.192;7.024;2023-01-19T04:26:10;10.07;;;7.10;;
13404;SDS011;6773;51.192;7.024;2023-01-19T04:28:36;8.37;;;6.00;;
13404;SDS011;6773;51.192;7.024;2023-01-19T04:31:02;10.47;;;6.37;;
13404;SDS011;6773;51.192;7.024;2023-01-19T04:33:28;7.13;;;6.20;;
13404;SDS011;6773;51.192;7.024;2023-01-19T04:35:54;14.17;;;8.00;;
13404;SDS011;6773;51.192;7.024;2023-01-19T04:38:20;12.17;;;7.63;;
13404;SDS011;6773;51.192;7.024;2023-01-19T04:40:50;14.63;;;7.37;;
13404;SDS011;6773;51.192;7.024;2023-01-19T04:43:20;10.40;;;7.43;;
13404;SDS011;6773;51.192;7.024;2023-01-19T04:45:47;11.37;;;8.90;;
13404;SDS011;6773;51.192;7.024;2023-01-19T04:48:13;9.40;;;6.87;;
13404;SDS011;6773;51.192;7.024;2023-01-19T04:50:39;11.73;;;6.80;;
13404;SDS011;6773;51.192;7.024;2023-01-19T04:53:05;13.70;;;7.87;;
13404;SDS011;6773;51.192;7.024;2023-01-19T04:55:31;15.07;;;8.40;;
13404;SDS011;6773;51.192;7.024;2023-01-19T04:57:57;13.60;;;8.53;;
13404;SDS011;6773;51.192;7.024;2023-01-19T05:00:23;9.30;;;7.60;;
13404;SDS011;6773;51.192;7.024;2023-01-19T05:02:50;9.07;;;6.33;;
13404;SDS011;6773;51.192;7.024;2023-01-19T05:05:16;12.80;;;9.60;;
13404;SDS011;6773;51.192;7.024;2023-01-19T05:07:42;16.27;;;8.27;;
13404;SDS011;6773;51.192;7.024;2023-01-19T05:10:08;10.20;;;7.33;;
13404;SDS011;6773;51.192;7.024;2023-01-19T05:12:35;15.37;;;9.60;;
13404;SDS011;6773;51.192;7.024;2023-01-19T05:15:01;14.57;;;7.73;;
13404;SDS011;6773;51.192;7.024;2023-01-19T05:17:26;11.90;;;9.00;;
13404;SDS011;6773;51.192;7.024;2023-01-19T05:19:53;11.07;;;7.33;;
13404;SDS011;6773;51.192;7.024;2023-01-19T05:22:18;11.10;;;6.87;;
13404;SDS011;6773;51.192;7.024;2023-01-19T05:24:44;17.80;;;11.10;;
13404;SDS011;6773;51.192;7.024;2023-01-19T05:27:10;15.03;;;9.57;;
13404;SDS011;6773;51.192;7.024;2023-01-19T05:29:35;12.33;;;9.03;;
13404;SDS011;6773;51.192;7.024;2023-01-19T05:32:02;17.57;;;11.60;;
13404;SDS011;6773;51.192;7.024;2023-01-19T05:34:28;19.03;;;10.47;;
13404;SDS011;6773;51.192;7.024;2023-01-19T05:36:53;15.13;;;9.20;;
13404;SDS011;6773;51.192;7.024;2023-01-19T05:39:19;16.70;;;10.37;;
13404;SDS011;6773;51.192;7.024;2023-01-19T05:41:44;16.80;;;9.00;;
13404;SDS011;6773;51.192;7.024;2023-01-19T05:44:11;17.60;;;11.57;;
13404;SDS011;6773;51.192;7.024;2023-01-19T05:46:37;16.43;;;10.77;;
13404;SDS011;6773;51.192;7.024;2023-01-19T05:49:04;19.43;;;12.10;;
13404;SDS011;6773;51.192;7.024;2023-01-19T05:51:31;16.20;;;10.90;;
13404;SDS011;6773;51.192;7.024;2023-01-19T05:54:01;17.47;;;11.00;;
13404;SDS011;6773;51.192;7.024;2023-01-19T05:56:28;16.90;;;11.07;;
13404;SDS011;6773;51.192;7.024;2023-01-19T05:58:54;23.87;;;12.20;;
13404;SDS011;6773;51.192;7.024;2023-01-19T06:01:19;17.73;;;10.77;;
13404;SDS011;6773;51.192;7.024;2023-01-19T06:03:45;23.13;;;12.40;;
13404;SDS011;6773;51.192;7.024;2023-01-19T06:06:12;21.70;;;12.53;;
13404;SDS011;6773;51.192;7.024;2023-01-19T06:08:39;20.13;;;11.47;;
13404;SDS011;6773;51.192;7.024;2023-01-19T06:11:05;14.67;;;9.70;;
13404;SDS011;6773;51.192;7.024;2023-01-19T06:13:31;21.43;;;11.77;;
13404;SDS011;6773;51.192;7.024;2023-01-19T06:15:57;16.67;;;11.63;;
13404;SDS011;6773;51.192;7.024;2023-01-19T06:18:24;16.93;;;10.83;;
13404;SDS011;6773;51.192;7.024;2023-01-19T06:20:50;13.53;;;8.47;;
13404;SDS011;6773;51.192;7.024;2023-01-19T06:23:16;16.40;;;10.30;;
13404;SDS011;6773;51.192;7.024;2023-01-19T06:25:42;16.37;;;9.93;;
13404;SDS011;6773;51.192;7.024;2023-01-19T06:28:07;18.80;;;12.23;;
13404;SDS011;6773;51.192;7.024;2023-01-19T06:30:33;16.47;;;10.90;;
13404;SDS011;6773;51.192;7.024;2023-01-19T06:32:59;16.97;;;10.67;;
13404;SDS011;6773;51.192;7.024;2023-01-19T06:35:24;21.03;;;11.30;;
13404;SDS011;6773;51.192;7.024;2023-01-19T06:37:51;23.13;;;12.00;;
13404;SDS011;6773;51.192;7.024;2023-01-19T06:40:17;15.30;;;9.63;;
13404;SDS011;6773;51.192;7.024;2023-01-19T06:42:43;18.00;;;10.67;;
13404;SDS011;6773;51.192;7.024;2023-01-19T06:45:08;21.33;;;12.53;;
13404;SDS011;6773;51.192;7.024;2023-01-19T06:47:34;20.23;;;12.43;;
13404;SDS011;6773;51.192;7.024;2023-01-19T06:50:00;32.37;;;12.93;;
13404;SDS011;6773;51.192;7.024;2023-01-19T06:52:26;19.40;;;11.60;;
13404;SDS011;6773;51.192;7.024;2023-01-19T06:54:52;18.67;;;10.97;;
13404;SDS011;6773;51.192;7.024;2023-01-19T06:57:18;21.03;;;12.07;;
13404;SDS011;6773;51.192;7.024;2023-01-19T06:59:43;20.23;;;11.37;;
13404;SDS011;6773;51.192;7.024;2023-01-19T07:02:09;20.07;;;12.00;;
13404;SDS011;6773;51.192;7.024;2023-01-19T07:04:35;20.87;;;12.10;;
13404;SDS011;6773;51.192;7.024;2023-01-19T07:07:01;19.43;;;10.47;;
13404;SDS011;6773;51.192;7.024;2023-01-19T07:09:27;19.43;;;11.47;;
13404;SDS011;6773;51.192;7.024;2023-01-19T07:11:53;18.97;;;11.83;;
13404;SDS011;6773;51.192;7.024;2023-01-19T07:14:18;19.43;;;11.87;;
13404;SDS011;6773;51.192;7.024;2023-01-19T07:16:44;18.43;;;11.43;;
13404;SDS011;6773;51.192;7.024;2023-01-19T07:19:11;17.13;;;10.77;;
13404;SDS011;6773;51.192;7.024;2023-01-19T07:21:38;18.93;;;11.87;;
13404;SDS011;6773;51.192;7.024;2023-01-19T07:24:04;20.20;;;11.70;;
13404;SDS011;6773;51.192;7.024;2023-01-19T07:26:30;45.90;;;13.83;;
13404;SDS011;6773;51.192;7.024;2023-01-19T07:28:56;26.97;;;14.47;;
13404;SDS011;6773;51.192;7.024;2023-01-19T07:31:22;23.57;;;13.40;;
13404;SDS011;6773;51.192;7.024;2023-01-19T07:33:47;30.43;;;15.47;;
13404;SDS011;6773;51.192;7.024;2023-01-19T07:36:13;25.40;;;14.13;;
13404;SDS011;6773;51.192;7.024;2023-01-19T07:38:39;29.67;;;14.03;;
13404;SDS011;6773;51.192;7.024;2023-01-19T07:41:06;27.77;;;14.13;;
13404;SDS011;6773;51.192;7.024;2023-01-19T07:43:33;26.60;;;14.13;;
13404;SDS011;6773;51.192;7.024;2023-01-19T07:46:00;30.47;;;15.70;;
13404;SDS011;6773;51.192;7.024;2023-01-19T07:48:28;33.17;;;16.07;;
13404;SDS011;6773;51.192;7.024;2023-01-19T07:51:00;21.77;;;13.47;;
13404;SDS011;6773;51.192;7.024;2023-01-19T07:53:29;32.23;;;17.43;;
13404;SDS011;6773;51.192;7.024;2023-01-19T07:55:56;29.87;;;16.17;;
13404;SDS011;6773;51.192;7.024;2023-01-19T07:58:22;24.93;;;16.03;;
13404;SDS011;6773;51.192;7.024;2023-01-19T08:00:48;33.23;;;17.33;;
13404;SDS011;6773;51.192;7.024;2023-01-19T08:03:15;27.17;;;15.90;;
13404;SDS011;6773;51.192;7.024;2023-01-19T08:05:41;30.63;;;15.73;;
13404;SDS011;6773;51.192;7.024;2023-01-19T08:08:07;31.00;;;17.03;;
13404;SDS011;6773;51.192;7.024;2023-01-19T08:10:33;33.53;;;17.27;;
13404;SDS011;6773;51.192;7.024;2023-01-19T08:12:59;32.30;;;16.67;;
13404;SDS011;6773;51.192;7.024;2023-01-19T08:15:25;33.03;;;17.10;;
13404;SDS011;6773;51.192;7.024;2023-01-19T08:17:57;33.13;;;15.83;;
13404;SDS011;6773;51.192;7.024;2023-01-19T08:20:24;37.17;;;18.50;;
13404;SDS011;6773;51.192;7.024;2023-01-19T08:22:51;35.23;;;17.53;;
13404;SDS011;6773;51.192;7.024;2023-01-19T08:25:23;38.40;;;17.10;;
13404;SDS011;6773;51.192;7.024;2023-01-19T08:28:03;32.80;;;15.57;;
13404;SDS011;6773;51.192;7.024;2023-01-19T08:30:30;38.20;;;17.97;;
13404;SDS011;6773;51.192;7.024;2023-01-19T08:32:55;40.77;;;19.53;;
13404;SDS011;6773;51.192;7.024;2023-01-19T08:35:31;31.97;;;17.23;;
13404;SDS011;6773;51.192;7.024;2023-01-19T08:38:02;33.93;;;16.77;;
13404;SDS011;6773;51.192;7.024;2023-01-19T08:40:29;38.33;;;18.00;;
13404;SDS011;6773;51.192;7.024;2023-01-19T08:42:59;33.90;;;18.40;;
13404;SDS011;6773;51.192;7.024;2023-01-19T08:45:28;35.83;;;16.90;;
13404;SDS011;6773;51.192;7.024;2023-01-19T08:47:57;35.73;;;17.07;;
13404;SDS011;6773;51.192;7.024;2023-01-19T08:50:29;39.50;;;17.17;;
13404;SDS011;6773;51.192;7.024;2023-01-19T08:52:57;34.33;;;16.77;;
13404;SDS011;6773;51.192;7.024;2023-01-19T08:55:23;30.87;;;16.30;;
13404;SDS011;6773;51.192;7.024;2023-01-19T08:57:50;30.50;;;15.20;;
13404;SDS011;6773;51.192;7.024;2023-01-19T09:00:17;38.23;;;17.60;;
13404;SDS011;6773;51.192;7.024;2023-01-19T09:02:44;30.43;;;15.03;;
13404;SDS011;6773;51.192;7.024;2023-01-19T09:05:11;29.13;;;16.37;;
13404;SDS011;6773;51.192;7.024;2023-01-19T09:07:37;33.13;;;16.60;;
13404;SDS011;6773;51.192;7.024;2023-01-19T09:10:03;35.90;;;17.57;;
13404;SDS011;6773;51.192;7.024;2023-01-19T09:12:29;41.23;;;18.13;;
13404;SDS011;6773;51.192;7.024;2023-01-19T09:14:55;43.37;;;20.50;;
13404;SDS011;6773;51.192;7.024;2023-01-19T09:17:21;42.50;;;18.97;;
13404;SDS011;6773;51.192;7.024;2023-01-19T09:19:47;38.50;;;19.10;;
13404;SDS011;6773;51.192;7.024;2023-01-19T09:22:12;42.80;;;18.90;;
13404;SDS011;6773;51.192;7.024;2023-01-19T09:24:38;35.43;;;18.50;;
13404;SDS011;6773;51.192;7.024;2023-01-19T09:27:04;46.50;;;19.80;;
13404;SDS011;6773;51.192;7.024;2023-01-19T09:29:29;40.63;;;20.03;;
13404;SDS011;6773;51.192;7.024;2023-01-19T09:31:55;44.40;;;19.57;;
13404;SDS011;6773;51.192;7.024;2023-01-19T09:34:21;44.17;;;21.07;;
13404;SDS011;6773;51.192;7.024;2023-01-19T09:36:49;46.43;;;20.93;;
13404;SDS011;6773;51.192;7.024;2023-01-19T09:39:15;45.03;;;21.63;;
13404;SDS011;6773;51.192;7.024;2023-01-19T09:41:41;47.47;;;21.00;;
13404;SDS011;6773;51.192;7.024;2023-01-19T09:44:15;46.53;;;20.23;;
13404;SDS011;6773;51.192;7.024;2023-01-19T09:46:52;41.70;;;20.10;;
13404;SDS011;6773;51.192;7.024;2023-01-19T09:49:30;51.30;;;23.13;;
13404;SDS011;6773;51.192;7.024;2023-01-19T09:52:06;41.60;;;21.27;;
13404;SDS011;6773;51.192;7.024;2023-01-19T09:54:45;49.73;;;21.60;;
13404;SDS011;6773;51.192;7.024;2023-01-19T09:57:17;53.43;;;23.40;;
13404;SDS011;6773;51.192;7.024;2023-01-19T09:59:43;53.63;;;22.80;;
13404;SDS011;6773;51.192;7.024;2023-01-19T10:02:20;46.83;;;21.50;;
13404;SDS011;6773;51.192;7.024;2023-01-19T10:07:28;48.27;;;21.40;;
13404;SDS011;6773;51.192;7.024;2023-01-19T10:10:00;50.23;;;21.10;;
13404;SDS011;6773;51.192;7.024;2023-01-19T10:15:41;43.17;;;17.20;;
13404;SDS011;6773;51.192;7.024;2023-01-19T10:18:25;45.20;;;20.60;;
13404;SDS011;6773;51.192;7.024;2023-01-19T10:21:00;53.40;;;22.37;;
13404;SDS011;6773;51.192;7.024;2023-01-19T10:23:36;52.40;;;20.43;;
13404;SDS011;6773;51.192;7.024;2023-01-19T10:26:12;46.93;;;19.27;;
13404;SDS011;6773;51.192;7.024;2023-01-19T10:28:46;52.30;;;22.33;;
13404;SDS011;6773;51.192;7.024;2023-01-19T10:31:16;55.30;;;22.87;;
13404;SDS011;6773;51.192;7.024;2023-01-19T10:33:44;56.63;;;24.30;;
13404;SDS011;6773;51.192;7.024;2023-01-19T10:36:18;50.80;;;21.40;;
13404;SDS011;6773;51.192;7.024;2023-01-19T10:38:52;52.87;;;20.07;;
13404;SDS011;6773;51.192;7.024;2023-01-19T10:41:22;47.63;;;22.23;;
13404;SDS011;6773;51.192;7.024;2023-01-19T10:44:01;46.60;;;21.13;;
13404;SDS011;6773;51.192;7.024;2023-01-19T10:51:58;37.77;;;17.43;;
13404;SDS011;6773;51.192;7.024;2023-01-19T10:54:25;64.97;;;22.63;;
13404;SDS011;6773;51.192;7.024;2023-01-19T10:57:09;41.77;;;19.33;;
13404;SDS011;6773;51.192;7.024;2023-01-19T10:59:46;57.80;;;22.53;;
13404;SDS011;6773;51.192;7.024;2023-01-19T11:04:51;30.50;;;15.27;;
13404;SDS011;6773;51.192;7.024;2023-01-19T11:07:36;55.20;;;21.87;;
13404;SDS011;6773;51.192;7.024;2023-01-19T11:12:40;42.67;;;19.80;;
13404;SDS011;6773;51.192;7.024;2023-01-19T11:15:14;63.57;;;24.50;;
13404;SDS011;6773;51.192;7.024;2023-01-19T11:17:45;50.93;;;20.40;;
13404;SDS011;6773;51.192;7.024;2023-01-19T11:20:22;63.10;;;23.53;;
13404;SDS011;6773;51.192;7.024;2023-01-19T11:25:40;55.40;;;23.40;;
13404;SDS011;6773;51.192;7.024;2023-01-19T11:28:26;58.73;;;22.70;;
13404;SDS011;6773;51.192;7.024;2023-01-19T11:30:57;57.23;;;23.13;;
13404;SDS011;6773;51.192;7.024;2023-01-19T11:33:41;49.00;;;22.07;;
13404;SDS011;6773;51.192;7.024;2023-01-19T11:36:30;50.60;;;22.93;;
13404;SDS011;6773;51.192;7.024;2023-01-19T11:38:59;54.93;;;22.00;;
13404;SDS011;6773;51.192;7.024;2023-01-19T11:41:44;43.57;;;20.00;;
13404;SDS011;6773;51.192;7.024;2023-01-19T11:46:48;56.77;;;21.17;;
13404;SDS011;6773;51.192;7.024;2023-01-19T11:49:19;54.43;;;25.40;;
13404;SDS011;6773;51.192;7.024;2023-01-19T11:51:57;43.83;;;20.97;;
13404;SDS011;6773;51.192;7.024;2023-01-19T11:55:01;57.57;;;21.90;;
13404;SDS011;6773;51.192;7.024;2023-01-19T11:57:36;48.23;;;22.00;;
13404;SDS011;6773;51.192;7.024;2023-01-19T12:00:18;46.73;;;19.67;;
13404;SDS011;6773;51.192;7.024;2023-01-19T12:02:57;48.13;;;19.30;;
13404;SDS011;6773;51.192;7.024;2023-01-19T12:05:46;45.67;;;22.67;;
13404;SDS011;6773;51.192;7.024;2023-01-19T12:08:16;62.33;;;23.13;;
13404;SDS011;6773;51.192;7.024;2023-01-19T12:10:46;53.43;;;21.77;;
13404;SDS011;6773;51.192;7.024;2023-01-19T12:13:17;42.80;;;20.80;;
13404;SDS011;6773;51.192;7.024;2023-01-19T12:15:45;48.83;;;23.40;;
13404;SDS011;6773;51.192;7.024;2023-01-19T12:18:18;59.60;;;23.47;;
13404;SDS011;6773;51.192;7.024;2023-01-19T12:20:51;52.67;;;22.03;;
13404;SDS011;6773;51.192;7.024;2023-01-19T12:28:41;47.40;;;23.40;;
13404;SDS011;6773;51.192;7.024;2023-01-19T12:31:09;63.83;;;22.90;;
13404;SDS011;6773;51.192;7.024;2023-01-19T12:33:42;57.83;;;23.10;;
13404;SDS011;6773;51.192;7.024;2023-01-19T12:41:46;49.13;;;21.87;;
13404;SDS011;6773;51.192;7.024;2023-01-19T12:44:14;54.60;;;22.60;;
13404;SDS011;6773;51.192;7.024;2023-01-19T12:51:51;51.10;;;21.63;;
13404;SDS011;6773;51.192;7.024;2023-01-19T12:54:33;55.93;;;23.27;;
13404;SDS011;6773;51.192;7.024;2023-01-19T12:57:00;54.30;;;22.67;;
13404;SDS011;6773;51.192;7.024;2023-01-19T12:59:30;58.53;;;22.67;;
13404;SDS011;6773;51.192;7.024;2023-01-19T13:14:35;43.27;;;20.90;;
13404;SDS011;6773;51.192;7.024;2023-01-19T13:19:08;37.63;;;19.13;;
13404;SDS011;6773;51.192;7.024;2023-01-19T13:21:43;44.53;;;20.97;;
13404;SDS011;6773;51.192;7.024;2023-01-19T13:24:14;37.97;;;19.67;;
13404;SDS011;6773;51.192;7.024;2023-01-19T13:29:17;42.47;;;21.17;;
13404;SDS011;6773;51.192;7.024;2023-01-19T13:31:58;37.23;;;18.10;;
13404;SDS011;6773;51.192;7.024;2023-01-19T13:34:52;54.03;;;21.10;;
13404;SDS011;6773;51.192;7.024;2023-01-19T13:37:33;52.93;;;21.47;;
13404;SDS011;6773;51.192;7.024;2023-01-19T13:40:02;39.23;;;17.63;;
13404;SDS011;6773;51.192;7.024;2023-01-19T13:42:32;43.90;;;19.43;;
13404;SDS011;6773;51.192;7.024;2023-01-19T13:45:06;37.47;;;18.83;;
13404;SDS011;6773;51.192;7.024;2023-01-19T13:47:47;38.27;;;17.20;;
13404;SDS011;6773;51.192;7.024;2023-01-19T13:53:19;44.03;;;18.40;;
13404;SDS011;6773;51.192;7.024;2023-01-19T13:55:45;48.60;;;18.63;;
13404;SDS011;6773;51.192;7.024;2023-01-19T13:58:30;41.60;;;19.10;;
13404;SDS011;6773;51.192;7.024;2023-01-19T14:00:56;32.40;;;14.83;;
13404;SDS011;6773;51.192;7.024;2023-01-19T14:03:23;40.90;;;18.33;;
13404;SDS011;6773;51.192;7.024;2023-01-19T14:05:52;40.93;;;19.33;;
13404;SDS011;6773;51.192;7.024;2023-01-19T14:08:19;39.70;;;20.10;;
13404;SDS011;6773;51.192;7.024;2023-01-19T14:15:58;36.23;;;20.70;;
13404;SDS011;6773;51.192;7.024;2023-01-19T14:18:44;37.23;;;16.10;;
13404;SDS011;6773;51.192;7.024;2023-01-19T14:21:11;37.83;;;17.33;;
13404;SDS011;6773;51.192;7.024;2023-01-19T14:31:51;37.27;;;17.67;;
13404;SDS011;6773;51.192;7.024;2023-01-19T14:34:49;34.77;;;17.33;;
13404;SDS011;6773;51.192;7.024;2023-01-19T14:37:35;34.77;;;16.60;;
13404;SDS011;6773;51.192;7.024;2023-01-19T14:50:29;29.17;;;18.07;;
13404;SDS011;6773;51.192;7.024;2023-01-19T14:52:59;34.50;;;17.70;;
13404;SDS011;6773;51.192;7.024;2023-01-19T14:55:31;34.67;;;18.13;;
13404;SDS011;6773;51.192;7.024;2023-01-19T14:58:00;32.27;;;16.50;;
13404;SDS011;6773;51.192;7.024;2023-01-19T15:00:32;34.93;;;15.73;;
13404;SDS011;6773;51.192;7.024;2023-01-19T15:02:57;30.73;;;16.20;;
13404;SDS011;6773;51.192;7.024;2023-01-19T15:05:23;35.07;;;16.00;;
13404;SDS011;6773;51.192;7.024;2023-01-19T15:07:48;27.40;;;15.27;;
13404;SDS011;6773;51.192;7.024;2023-01-19T15:10:17;31.00;;;16.90;;
13404;SDS011;6773;51.192;7.024;2023-01-19T15:12:45;24.23;;;12.53;;
13404;SDS011;6773;51.192;7.024;2023-01-19T15:15:12;29.57;;;15.57;;
13404;SDS011;6773;51.192;7.024;2023-01-19T15:17:39;32.20;;;16.83;;
13404;SDS011;6773;51.192;7.024;2023-01-19T15:20:05;27.13;;;15.77;;
13404;SDS011;6773;51.192;7.024;2023-01-19T15:22:38;32.90;;;16.17;;
13404;SDS011;6773;51.192;7.024;2023-01-19T15:25:04;26.70;;;16.03;;
13404;SDS011;6773;51.192;7.024;2023-01-19T15:27:30;29.00;;;17.10;;
13404;SDS011;6773;51.192;7.024;2023-01-19T15:29:55;28.50;;;16.23;;
13404;SDS011;6773;51.192;7.024;2023-01-19T15:32:23;28.20;;;16.53;;
13404;SDS011;6773;51.192;7.024;2023-01-19T15:34:49;27.90;;;15.57;;
13404;SDS011;6773;51.192;7.024;2023-01-19T15:37:14;30.87;;;16.60;;
13404;SDS011;6773;51.192;7.024;2023-01-19T15:39:40;26.80;;;16.23;;
13404;SDS011;6773;51.192;7.024;2023-01-19T15:42:12;30.53;;;14.70;;
13404;SDS011;6773;51.192;7.024;2023-01-19T15:44:38;28.33;;;14.83;;
13404;SDS011;6773;51.192;7.024;2023-01-19T15:47:04;23.93;;;14.73;;
13404;SDS011;6773;51.192;7.024;2023-01-19T15:49:29;26.73;;;14.00;;
13404;SDS011;6773;51.192;7.024;2023-01-19T15:51:55;27.87;;;13.93;;
13404;SDS011;6773;51.192;7.024;2023-01-19T15:54:21;29.33;;;14.90;;
13404;SDS011;6773;51.192;7.024;2023-01-19T15:56:46;25.83;;;15.43;;
13404;SDS011;6773;51.192;7.024;2023-01-19T15:59:12;28.83;;;15.97;;
13404;SDS011;6773;51.192;7.024;2023-01-19T16:01:38;28.20;;;16.10;;
13404;SDS011;6773;51.192;7.024;2023-01-19T16:04:05;27.73;;;15.57;;
13404;SDS011;6773;51.192;7.024;2023-01-19T16:06:33;28.13;;;15.13;;
13404;SDS011;6773;51.192;7.024;2023-01-19T16:08:59;28.97;;;14.87;;
13404;SDS011;6773;51.192;7.024;2023-01-19T16:11:26;32.07;;;15.57;;
13404;SDS011;6773;51.192;7.024;2023-01-19T16:13:54;29.27;;;15.17;;
13404;SDS011;6773;51.192;7.024;2023-01-19T16:16:20;26.20;;;15.17;;
13404;SDS011;6773;51.192;7.024;2023-01-19T16:18:47;25.53;;;15.63;;
13404;SDS011;6773;51.192;7.024;2023-01-19T16:21:13;24.13;;;14.17;;
13404;SDS011;6773;51.192;7.024;2023-01-19T16:23:39;29.63;;;15.77;;
13404;SDS011;6773;51.192;7.024;2023-01-19T16:26:06;30.73;;;16.80;;
13404;SDS011;6773;51.192;7.024;2023-01-19T16:28:46;33.57;;;16.23;;